createdAt,value
2022-09-15T00:02:11.551Z,13.60
2022-09-15T00:07:14.427Z,10.80
2022-09-15T00:12:17.267Z,9.85
2022-09-15T00:17:20.341Z,11.43
2022-09-15T00:22:24.248Z,11.13
2022-09-15T00:27:26.941Z,12.63
2022-09-15T00:32:30.501Z,11.20
2022-09-15T00:37:34.400Z,12.90
2022-09-15T00:42:37.412Z,10.88
2022-09-15T00:47:40.726Z,13.07
2022-09-15T00:53:01.947Z,10.90
2022-09-15T00:58:09.103Z,9.87
2022-09-15T01:03:11.841Z,8.88
2022-09-15T01:09:00.022Z,9.60
2022-09-15T01:14:02.871Z,9.13
2022-09-15T01:19:37.950Z,10.57
2022-09-15T01:25:20.782Z,12.00
2022-09-15T01:30:24.521Z,10.38
2022-09-15T01:35:57.310Z,9.85
2022-09-15T01:41:07.097Z,8.63
2022-09-15T01:46:12.019Z,9.20
2022-09-15T01:51:16.714Z,9.37
2022-09-15T01:56:19.459Z,9.95
2022-09-15T02:01:33.297Z,10.18
2022-09-15T02:06:48.291Z,9.95
2022-09-15T02:12:29.350Z,11.80
2022-09-15T02:17:36.151Z,11.67
2022-09-15T02:22:41.173Z,12.25
2022-09-15T02:27:49.102Z,11.60
2022-09-15T02:33:03.062Z,9.18
2022-09-15T02:38:09.368Z,10.90
2022-09-15T02:43:17.891Z,8.33
2022-09-15T02:48:20.539Z,10.98
2022-09-15T02:53:23.330Z,11.25
2022-09-15T02:58:26.226Z,9.82
2022-09-15T03:03:28.991Z,10.85
2022-09-15T03:08:31.994Z,11.20
2022-09-15T03:13:34.665Z,12.80
2022-09-15T03:18:38.713Z,11.73
2022-09-15T03:23:42.146Z,12.48
2022-09-15T03:28:45.277Z,12.18
2022-09-15T03:33:48.623Z,11.23
2022-09-15T03:38:51.974Z,12.43
2022-09-15T03:43:55.109Z,10.10
2022-09-15T03:48:57.877Z,11.52
2022-09-15T03:54:00.440Z,11.13
2022-09-15T03:59:05.970Z,10.80
2022-09-15T04:04:08.765Z,13.80
2022-09-15T04:09:11.728Z,11.77
2022-09-15T04:14:14.730Z,11.77
2022-09-15T04:19:17.533Z,10.63
2022-09-15T04:24:20.290Z,12.40
2022-09-15T04:29:23.667Z,12.38
2022-09-15T04:34:26.462Z,11.88
2022-09-15T04:39:29.268Z,11.30
2022-09-15T04:44:33.130Z,11.32
2022-09-15T04:49:36.142Z,10.93
2022-09-15T04:54:38.888Z,10.65
2022-09-15T04:59:41.607Z,11.10
2022-09-15T05:04:44.357Z,8.23
2022-09-15T05:09:46.972Z,9.20
2022-09-15T05:14:49.850Z,7.37
2022-09-15T05:19:52.648Z,7.80
2022-09-15T05:24:55.328Z,6.30
2022-09-15T05:30:17.756Z,6.53
2022-09-15T05:35:20.702Z,6.25
2022-09-15T05:40:23.561Z,5.20
2022-09-15T05:45:26.534Z,4.85
2022-09-15T05:50:31.129Z,5.15
2022-09-15T05:55:43.213Z,5.75
2022-09-15T06:00:45.954Z,4.70
2022-09-15T06:05:48.752Z,5.83
2022-09-15T06:10:51.507Z,4.68
2022-09-15T06:15:54.356Z,5.03
2022-09-15T06:20:58.157Z,3.95
2022-09-15T06:26:13.836Z,5.43
2022-09-15T06:31:16.954Z,6.83
2022-09-15T06:36:22.058Z,4.55
2022-09-15T06:41:25.014Z,4.53
2022-09-15T06:46:31.552Z,4.28
2022-09-15T06:51:36.306Z,5.65
2022-09-15T06:56:39.152Z,5.43
2022-09-15T07:01:42.913Z,5.38
2022-09-15T07:06:46.279Z,4.88
2022-09-15T07:11:48.954Z,5.07
2022-09-15T07:16:52.005Z,5.82
2022-09-15T07:21:54.984Z,3.53
2022-09-15T07:26:57.905Z,4.15
2022-09-15T07:32:03.089Z,3.53
2022-09-15T07:37:06.612Z,4.82
2022-09-15T07:42:09.533Z,3.40
2022-09-15T07:47:12.504Z,3.97
2022-09-15T07:52:15.276Z,4.53
2022-09-15T07:57:18.001Z,5.55
2022-09-15T08:02:22.124Z,5.05
2022-09-15T08:07:24.962Z,4.68
2022-09-15T08:12:27.812Z,5.70
2022-09-15T08:17:30.790Z,6.60
2022-09-15T08:22:34.055Z,3.40
2022-09-15T08:27:36.844Z,4.15
2022-09-15T08:32:39.573Z,2.70
2022-09-15T08:37:42.465Z,3.23
2022-09-15T09:24:15.478Z,2.97
2022-09-15T09:29:30.519Z,4.97
2022-09-15T09:34:54.567Z,4.40
2022-09-15T09:39:57.421Z,3.28
2022-09-15T09:45:00.518Z,3.22
2022-09-15T09:50:03.548Z,4.57
2022-09-15T09:55:24.442Z,4.55
2022-09-15T10:00:39.356Z,3.87
2022-09-15T10:05:43.600Z,3.28
2022-09-15T10:10:54.601Z,4.15
2022-09-15T10:16:01.541Z,5.55
2022-09-15T10:21:07.837Z,4.07
2022-09-15T10:26:24.985Z,7.53
2022-09-15T10:31:31.298Z,4.47
2022-09-15T10:36:34.135Z,6.35
2022-09-15T10:41:49.169Z,5.53
2022-09-15T10:47:13.384Z,6.60
2022-09-15T10:52:53.805Z,6.77
2022-09-15T10:58:17.464Z,7.05
2022-09-15T11:03:48.065Z,5.13
2022-09-15T11:09:05.375Z,6.82
2022-09-15T11:14:37.035Z,5.75
2022-09-15T11:19:51.865Z,6.97
2022-09-15T11:25:17.383Z,4.60
2022-09-15T11:30:36.266Z,4.82
2022-09-15T11:35:52.194Z,4.78
2022-09-15T11:41:12.604Z,5.75
2022-09-15T11:46:23.856Z,4.50
2022-09-15T11:51:28.815Z,4.00
2022-09-15T11:56:41.324Z,3.80
2022-09-15T12:02:18.856Z,4.88
2022-09-15T12:07:29.289Z,7.55
2022-09-15T12:12:35.784Z,4.07
2022-09-15T12:18:01.334Z,4.00
2022-09-15T12:23:14.606Z,3.58
2022-09-15T12:28:23.410Z,5.63
2022-09-15T12:33:57.047Z,4.80
2022-09-15T12:39:01.116Z,4.07
2022-09-15T12:44:18.335Z,4.28
2022-09-15T12:49:29.479Z,4.20
2022-09-15T12:54:34.154Z,4.03
2022-09-15T12:59:36.893Z,4.00
2022-09-15T13:04:43.334Z,3.53
2022-09-15T13:10:00.591Z,3.88
2022-09-15T13:15:07.734Z,4.15
2022-09-15T13:20:18.253Z,3.67
2022-09-15T13:25:27.725Z,4.40
2022-09-15T13:31:04.122Z,3.83
2022-09-15T13:36:26.389Z,4.00
2022-09-15T13:41:57.385Z,4.43
2022-09-15T13:47:15.466Z,4.30
2022-09-15T13:52:22.605Z,4.22
2022-09-15T14:02:53.725Z,6.45
2022-09-15T14:08:10.054Z,6.57
2022-09-15T14:13:16.863Z,4.97
2022-09-15T14:18:20.826Z,5.70
2022-09-15T14:23:23.633Z,5.23
2022-09-15T14:28:32.513Z,4.97
2022-09-15T14:33:38.313Z,5.57
2022-09-15T14:38:41.456Z,6.35
2022-09-15T14:43:44.829Z,6.80
2022-09-15T14:48:47.617Z,5.93
2022-09-15T14:53:53.055Z,7.38
2022-09-15T14:59:27.834Z,6.50
2022-09-15T15:04:42.659Z,6.78
2022-09-15T15:09:52.890Z,7.72
2022-09-15T15:14:56.977Z,7.83
2022-09-15T15:20:12.158Z,7.72
2022-09-15T15:25:28.501Z,8.27
2022-09-15T15:30:47.704Z,7.28
2022-09-15T15:36:03.154Z,7.60
2022-09-15T15:41:08.330Z,9.87
2022-09-15T15:46:11.635Z,8.35
2022-09-15T15:51:14.529Z,7.97
2022-09-15T15:56:25.854Z,8.23
2022-09-15T16:01:29.048Z,7.57
2022-09-15T16:06:32.673Z,9.57
2022-09-15T16:11:35.562Z,8.38
2022-09-15T16:16:38.611Z,7.00
2022-09-15T16:21:43.073Z,7.85
2022-09-15T16:26:46.645Z,9.20
2022-09-15T16:31:50.857Z,10.40
2022-09-15T16:36:53.718Z,9.85
2022-09-15T16:41:56.721Z,13.77
2022-09-15T16:46:59.666Z,10.00
2022-09-15T16:52:02.822Z,11.38
2022-09-15T16:57:05.628Z,12.77
2022-09-15T17:02:14.303Z,16.33
2022-09-15T17:07:17.262Z,13.65
2022-09-15T17:12:21.578Z,13.88
2022-09-15T17:17:25.575Z,14.88
2022-09-15T17:22:28.490Z,14.47
2022-09-15T17:27:31.381Z,16.60
2022-09-15T17:32:34.971Z,18.00
2022-09-15T17:37:38.197Z,25.33
2022-09-15T17:42:44.263Z,27.23
2022-09-15T17:47:48.568Z,28.13
2022-09-15T17:52:52.042Z,31.77
2022-09-15T17:57:56.172Z,29.95
2022-09-15T18:03:02.667Z,30.88
2022-09-15T18:08:06.952Z,30.70
2022-09-15T18:13:22.646Z,30.57
2022-09-15T18:18:28.327Z,31.00
2022-09-15T18:23:31.264Z,28.05
2022-09-15T18:28:34.243Z,29.92
2022-09-15T18:33:37.335Z,29.58
2022-09-15T18:38:40.138Z,32.33
2022-09-15T18:43:43.929Z,30.23
2022-09-15T18:48:46.910Z,30.48
2022-09-15T18:53:53.894Z,29.70
2022-09-15T18:58:57.253Z,27.27
2022-09-15T19:03:59.960Z,26.67
2022-09-15T19:09:02.740Z,23.98
2022-09-15T19:14:05.582Z,21.65
2022-09-15T19:19:08.310Z,23.75
2022-09-15T19:24:11.280Z,21.52
2022-09-15T19:29:15.831Z,18.43
2022-09-15T19:34:18.721Z,19.45
2022-09-15T19:39:21.837Z,17.40
2022-09-15T19:44:24.893Z,19.38
2022-09-15T19:49:28.005Z,19.40
2022-09-15T19:54:31.461Z,17.97
2022-09-15T19:59:35.195Z,20.95
2022-09-15T20:10:00.215Z,19.80
2022-09-15T20:15:03.063Z,20.55
2022-09-15T20:20:06.730Z,23.17
2022-09-15T20:25:09.748Z,23.05
2022-09-15T20:30:12.695Z,19.58
2022-09-15T20:35:15.979Z,19.15
2022-09-15T20:40:18.861Z,19.33
2022-09-15T20:45:22.027Z,20.87
2022-09-15T20:50:26.037Z,20.45
2022-09-15T20:55:29.026Z,21.67
2022-09-15T21:00:33.928Z,19.58
2022-09-15T21:05:37.116Z,20.95
2022-09-15T21:10:44.292Z,17.77
2022-09-15T21:16:01.593Z,16.00
2022-09-15T21:21:06.050Z,17.33
2022-09-15T21:26:12.473Z,16.10
2022-09-15T21:31:18.032Z,15.80
2022-09-15T21:36:22.662Z,14.13
2022-09-15T21:41:28.356Z,14.60
2022-09-15T21:46:32.183Z,11.88
2022-09-15T21:51:34.928Z,12.98
2022-09-15T21:56:37.953Z,12.82
2022-09-15T22:01:41.744Z,10.70
2022-09-15T22:06:45.277Z,9.65
2022-09-15T22:11:48.932Z,12.77
2022-09-15T22:16:52.123Z,11.68
2022-09-15T22:21:54.940Z,12.45
2022-09-15T22:26:57.885Z,12.33
2022-09-15T22:32:00.690Z,11.20
2022-09-15T22:37:03.522Z,13.55
2022-09-15T22:42:06.274Z,10.07
2022-09-15T22:47:09.722Z,12.35
2022-09-15T22:52:13.476Z,11.67
2022-09-15T22:57:16.265Z,14.45
2022-09-15T23:02:19.013Z,13.05
2022-09-15T23:07:21.753Z,11.80
2022-09-15T23:12:24.445Z,10.00
2022-09-15T23:17:27.654Z,9.30
2022-09-15T23:22:30.284Z,10.65
2022-09-15T23:27:33.231Z,9.80
2022-09-15T23:32:35.871Z,12.73
2022-09-15T23:37:38.553Z,11.07
2022-09-15T23:42:41.214Z,12.67
2022-09-15T23:47:43.919Z,10.35
2022-09-15T23:52:46.716Z,10.90
2022-09-15T23:57:49.491Z,11.30
